Aérodrome :
LOGIN :

S'inscrire | Disclaimer

   EN    FR    IT 

 










Légende :    VFR   VFR Marginal   IFR   IFR Intensif   IFR Très Intensif
Visi : 
Plafond : 
>= 8 km
>= 3000ft
5 à 8 km
1000 à 3000 ft
1500m à 5 km
500 à 1000 ft
800 à 1500m
200 à 500 ft
< 800m
< 200 ft
Symboles :   Orages  Brouillard  Fortes neiges  Fortes précipitations  Vent > 20 kt
SIGMETs :   Divers  Orages  Givrage  Turbulence  Onde Orograph.  Cendres Volcan.







- Altitude de l'aérodrome : 1302 ft
- Code IATA : GNB
- Voir les cartes d'approche


LFLS - Grenoble / St. Geoirs

DERNIER METAR :
  • 190430Z AUTO 12003KT 080V140 CAVOK M01/M02 Q1023 TEMPO 2000 BR BKN005

METARs EXPIRÉS :
  • 190400Z AUTO VRB03KT 9999 FEW026 BKN090 M01/M02 Q1023 TEMPO 2000 BR BKN005
  • 190330Z AUTO 36005KT 350V050 9999 OVC026 00/M01 Q1022 TEMPO 2000 BR BKN005
  • 190300Z AUTO VRB03KT 9999 SCT025 M01/M03 Q1022 TEMPO 2000 BR BKN005
  • 190230Z AUTO 02003KT CAVOK M01/M02 Q1022 TEMPO 2000 BR BKN005
  • 190200Z AUTO 02003KT 8000 NSC M01/M02 Q1023

TAF TAF LFLS
Valide du 19 à 03h jusqu'au 20 à 03h UTC


190200Z 1903/2003 36005KT 9999 BKN025
PROB30
TEMPO 1903/1908 2000 BR BKN005
PROB40
TEMPO 1912/1918 4000 -RADZ OVC014
ATIS : +33 4 76 65 55 89
Pas de NOTAMs connus pour ce terrain.



MET'MAP, la Météo Aéronautique d'un coup d'oeil ! - Copyright ORBIFLY Décembre 2007 - Disclaimer

ORBIFLY MET'MAP TEAM :

Programmation & Développement : Alexandra Zaïnal
Conception & Développement : Baudouin d'Aumeries
Co-Programmation & Développement : Marc-Olivier Méhu
Soutien technique & logistique : Manuel Goepfert

Contact : metmap@orbifly.com




SOURCES & CREDITS :

   NOAA